createdAt,value
2018-07-27T00:01:48.915Z,56.50
2018-07-27T00:04:16.377Z,55.30
2018-07-27T00:06:43.841Z,55.00
2018-07-27T00:09:12.607Z,56.50
2018-07-27T00:11:40.484Z,56.70
2018-07-27T00:14:10.121Z,54.50
2018-07-27T00:16:37.585Z,55.50
2018-07-27T00:19:05.287Z,55.30
2018-07-27T00:21:32.949Z,54.90
2018-07-27T00:24:00.482Z,54.60
2018-07-27T00:26:27.949Z,55.80
2018-07-27T00:28:55.480Z,55.60
2018-07-27T00:31:23.111Z,55.10
2018-07-27T00:33:50.575Z,55.50
2018-07-27T00:36:18.101Z,56.00
2018-07-27T00:38:45.525Z,55.10
2018-07-27T00:41:13.296Z,55.10
2018-07-27T00:43:40.733Z,55.10
2018-07-27T00:46:08.190Z,54.90
2018-07-27T00:48:35.633Z,54.40
2018-07-27T00:51:03.074Z,54.20
2018-07-27T00:53:30.672Z,54.30
2018-07-27T00:55:58.120Z,55.40
2018-07-27T00:58:25.553Z,54.60
2018-07-27T01:00:53.015Z,55.10
2018-07-27T01:03:20.471Z,55.00
2018-07-27T01:05:47.952Z,55.20
2018-07-27T01:08:15.453Z,54.40
2018-07-27T01:10:42.973Z,55.20
2018-07-27T01:15:44.485Z,54.70
2018-07-27T01:18:11.953Z,54.70
2018-07-27T01:20:39.742Z,54.80
2018-07-27T01:23:07.337Z,55.40
2018-07-27T01:25:34.780Z,55.50
2018-07-27T01:28:02.337Z,55.40
2018-07-27T01:30:29.800Z,54.60
2018-07-27T01:32:57.400Z,54.70
2018-07-27T01:35:24.852Z,56.20
2018-07-27T01:37:52.340Z,55.00
2018-07-27T01:40:19.953Z,55.50
2018-07-27T01:42:47.514Z,55.30
2018-07-27T01:45:14.965Z,56.00
2018-07-27T01:47:42.597Z,57.80
2018-07-27T01:50:10.098Z,58.60
2018-07-27T01:52:37.564Z,57.60
2018-07-27T01:55:05.087Z,56.80
2018-07-27T01:57:32.550Z,56.70
2018-07-27T02:00:00.040Z,57.90
2018-07-27T02:02:27.564Z,56.70
2018-07-27T02:04:55.033Z,57.40
2018-07-27T02:07:22.494Z,58.60
2018-07-27T02:09:49.964Z,56.90
2018-07-27T02:12:17.493Z,57.80
2018-07-27T02:14:44.948Z,57.40
2018-07-27T02:17:12.521Z,57.50
2018-07-27T02:19:39.969Z,61.20
2018-07-27T02:22:07.501Z,61.50
2018-07-27T02:24:34.950Z,60.70
2018-07-27T02:27:02.533Z,62.00
2018-07-27T02:29:29.969Z,62.90
2018-07-27T02:31:57.446Z,62.10
2018-07-27T02:34:26.033Z,62.30
2018-07-27T02:36:53.481Z,62.40
2018-07-27T02:39:20.921Z,61.50
2018-07-27T02:41:48.354Z,61.40
2018-07-27T02:44:21.726Z,62.70
2018-07-27T02:46:49.132Z,62.30
2018-07-27T02:49:16.565Z,62.00
2018-07-27T02:51:44.009Z,61.90
2018-07-27T02:54:11.442Z,64.40
2018-07-27T02:56:38.872Z,65.20
2018-07-27T02:59:06.328Z,64.60
2018-07-27T03:01:33.753Z,65.40
2018-07-27T03:04:01.209Z,66.50
2018-07-27T03:06:28.682Z,65.70
2018-07-27T03:08:56.122Z,65.90
2018-07-27T03:11:23.561Z,66.70
2018-07-27T03:13:51.104Z,65.80
2018-07-27T03:16:18.541Z,63.80
2018-07-27T03:18:46.108Z,66.60
2018-07-27T03:21:13.547Z,66.10
2018-07-27T03:23:41.006Z,67.20
2018-07-27T03:26:08.582Z,68.00
2018-07-27T03:28:36.049Z,67.70
2018-07-27T03:31:03.493Z,66.60
2018-07-27T03:33:30.941Z,66.50
2018-07-27T03:35:58.380Z,67.00
2018-07-27T03:38:25.901Z,69.10
2018-07-27T03:40:53.335Z,69.70
2018-07-27T03:43:20.796Z,69.00
2018-07-27T03:45:48.319Z,67.00
2018-07-27T03:48:15.765Z,67.60
2018-07-27T03:50:43.180Z,67.20
2018-07-27T03:53:10.959Z,68.20
2018-07-27T03:55:38.452Z,68.70
2018-07-27T03:58:05.921Z,69.50
2018-07-27T04:00:33.500Z,69.90
2018-07-27T04:03:00.933Z,69.20
2018-07-27T04:05:28.653Z,68.90
2018-07-27T04:07:56.320Z,69.40
2018-07-27T04:10:23.777Z,70.40
2018-07-27T04:12:51.208Z,70.40
2018-07-27T04:15:18.745Z,69.80
2018-07-27T04:17:50.805Z,69.20
2018-07-27T04:20:18.373Z,70.70
2018-07-27T04:22:45.900Z,71.00
2018-07-27T04:25:13.338Z,69.70
2018-07-27T04:27:40.929Z,70.80
2018-07-27T04:30:08.596Z,72.20
2018-07-27T04:32:36.086Z,70.60
2018-07-27T04:35:03.544Z,67.80
2018-07-27T04:37:30.989Z,68.00
2018-07-27T04:39:58.634Z,66.70
2018-07-27T04:42:26.070Z,66.90
2018-07-27T04:44:53.527Z,67.80
2018-07-27T04:47:21.128Z,68.50
2018-07-27T04:49:48.562Z,67.20
2018-07-27T04:52:16.005Z,68.30
2018-07-27T04:54:43.459Z,66.50
2018-07-27T04:57:10.889Z,68.10
2018-07-27T04:59:38.420Z,67.70
2018-07-27T05:02:06.344Z,68.80
2018-07-27T05:04:35.003Z,67.40
2018-07-27T05:07:02.412Z,66.80
2018-07-27T05:09:29.860Z,67.20
2018-07-27T05:11:58.432Z,66.30
2018-07-27T05:14:27.037Z,66.60
2018-07-27T05:16:54.741Z,66.90
2018-07-27T05:19:22.376Z,66.70
2018-07-27T05:21:49.807Z,66.60
2018-07-27T05:24:17.256Z,65.30
2018-07-27T05:26:44.676Z,66.10
2018-07-27T05:29:12.181Z,65.90
2018-07-27T05:31:39.643Z,66.00
2018-07-27T05:34:07.077Z,66.10
2018-07-27T05:36:34.532Z,65.80
2018-07-27T05:39:01.969Z,66.10
2018-07-27T05:41:29.401Z,65.60
2018-07-27T05:43:56.849Z,66.10
2018-07-27T05:46:24.319Z,65.40
2018-07-27T05:48:51.765Z,65.10
2018-07-27T05:51:19.394Z,65.00
2018-07-27T05:53:46.830Z,65.20
2018-07-27T05:56:14.273Z,64.30
2018-07-27T05:58:41.695Z,64.00
2018-07-27T06:01:09.168Z,64.80
2018-07-27T06:03:36.611Z,63.60
2018-07-27T06:06:04.068Z,64.20
2018-07-27T06:08:31.512Z,63.50
2018-07-27T06:10:58.977Z,63.30
2018-07-27T06:13:26.406Z,63.20
2018-07-27T06:15:53.909Z,63.50
2018-07-27T06:18:21.321Z,62.50
2018-07-27T06:20:48.789Z,62.00
2018-07-27T06:23:16.266Z,62.20
2018-07-27T06:25:43.744Z,61.90
2018-07-27T06:28:11.200Z,62.10
2018-07-27T06:30:38.621Z,60.80
2018-07-27T06:33:06.103Z,61.50
2018-07-27T06:35:33.561Z,60.90
2018-07-27T06:38:01.178Z,61.10
2018-07-27T06:40:28.619Z,62.50
2018-07-27T06:42:56.089Z,60.20
2018-07-27T06:45:23.525Z,59.40
2018-07-27T06:47:50.975Z,59.10
2018-07-27T06:50:18.586Z,59.50
2018-07-27T06:52:46.043Z,58.80
2018-07-27T06:55:13.500Z,58.60
2018-07-27T06:57:40.945Z,58.30
2018-07-27T07:00:08.382Z,57.40
2018-07-27T07:02:35.813Z,57.60
2018-07-27T07:05:03.274Z,57.00
2018-07-27T07:07:30.712Z,57.40
2018-07-27T07:09:58.156Z,56.20
2018-07-27T07:12:25.609Z,56.60
2018-07-27T07:14:53.093Z,56.40
2018-07-27T07:17:20.709Z,55.60
2018-07-27T07:19:48.129Z,55.40
2018-07-27T07:22:15.568Z,54.20
2018-07-27T07:27:10.236Z,54.10
2018-07-27T07:29:38.018Z,53.80
2018-07-27T07:32:05.464Z,53.60
2018-07-27T07:34:32.899Z,53.30
2018-07-27T07:37:00.361Z,53.40
2018-07-27T07:39:27.781Z,52.60
2018-07-27T07:41:55.227Z,51.80
2018-07-27T07:44:22.925Z,51.50
2018-07-27T07:46:51.518Z,53.00
2018-07-27T07:49:18.972Z,51.40
2018-07-27T07:51:46.420Z,51.90
2018-07-27T07:54:13.989Z,52.40
2018-07-27T07:56:41.413Z,51.40
2018-07-27T07:59:08.829Z,50.80
2018-07-27T08:01:36.253Z,50.90
2018-07-27T08:04:03.669Z,51.40
2018-07-27T08:06:31.096Z,50.00
2018-07-27T08:08:58.519Z,50.60
2018-07-27T08:11:26.065Z,49.50
2018-07-27T08:13:53.484Z,48.70
2018-07-27T08:16:20.915Z,48.50
2018-07-27T08:18:48.357Z,49.00
2018-07-27T08:21:20.281Z,48.70
2018-07-27T08:23:47.909Z,49.50
2018-07-27T08:26:48.593Z,48.40
2018-07-27T08:29:17.381Z,48.70
2018-07-27T08:31:46.158Z,49.70
2018-07-27T08:34:14.423Z,48.10
2018-07-27T08:36:41.986Z,48.20
2018-07-27T08:39:10.297Z,49.00
2018-07-27T08:41:38.140Z,47.90
2018-07-27T08:44:05.892Z,48.20
2018-07-27T08:46:33.488Z,47.10
2018-07-27T08:49:00.909Z,48.20
2018-07-27T08:51:28.354Z,48.40
2018-07-27T08:53:56.135Z,47.00
2018-07-27T08:56:23.626Z,47.80
2018-07-27T08:58:51.496Z,45.80
2018-07-27T09:01:18.943Z,45.80
2018-07-27T09:03:46.935Z,44.30
2018-07-27T09:08:41.904Z,45.70
2018-07-27T09:11:09.330Z,46.40
2018-07-27T09:13:36.752Z,46.60
2018-07-27T09:16:04.289Z,47.40
2018-07-27T09:18:31.873Z,44.60
2018-07-27T09:20:59.290Z,46.80
2018-07-27T09:23:26.708Z,45.00
2018-07-27T09:25:54.413Z,44.40
2018-07-27T09:28:21.873Z,43.70
2018-07-27T09:30:49.308Z,44.70
2018-07-27T09:33:16.747Z,42.20
2018-07-27T09:35:44.213Z,45.60
2018-07-27T09:38:11.650Z,42.70
2018-07-27T09:40:39.119Z,43.30
2018-07-27T09:43:06.518Z,43.10
2018-07-27T09:45:33.959Z,43.40
2018-07-27T09:48:01.398Z,44.50
2018-07-27T09:50:28.930Z,45.00
2018-07-27T09:52:56.385Z,44.70
2018-07-27T09:55:23.941Z,44.10
2018-07-27T09:57:51.416Z,43.40
2018-07-27T10:00:24.326Z,45.00
2018-07-27T10:02:52.445Z,42.70
2018-07-27T10:05:19.883Z,41.80
2018-07-27T10:07:47.343Z,45.90
2018-07-27T10:10:14.821Z,41.80
2018-07-27T10:12:42.255Z,44.60
2018-07-27T10:15:09.766Z,44.20
2018-07-27T10:17:37.313Z,41.10
2018-07-27T10:20:04.767Z,41.60
2018-07-27T10:22:32.198Z,41.90
2018-07-27T10:24:59.633Z,42.90
2018-07-27T10:27:27.072Z,42.90
2018-07-27T10:29:54.504Z,41.70
2018-07-27T10:32:22.032Z,42.60
2018-07-27T10:34:49.470Z,43.90
2018-07-27T10:37:16.890Z,42.90
2018-07-27T10:39:44.332Z,42.00
2018-07-27T10:42:11.761Z,42.30
2018-07-27T10:44:39.207Z,41.30
2018-07-27T10:47:07.249Z,40.50
2018-07-27T10:49:34.805Z,41.70
2018-07-27T10:52:02.326Z,40.80
2018-07-27T10:54:29.749Z,41.90
2018-07-27T10:56:57.171Z,39.60
2018-07-27T10:59:24.598Z,39.00
2018-07-27T11:01:52.009Z,41.40
2018-07-27T11:04:19.441Z,41.20
2018-07-27T11:06:46.943Z,40.80
2018-07-27T11:09:14.360Z,39.90
2018-07-27T11:11:41.878Z,42.00
2018-07-27T11:14:09.292Z,39.90
2018-07-27T11:16:36.772Z,37.50
2018-07-27T11:19:04.195Z,39.40
2018-07-27T11:21:31.613Z,39.80
2018-07-27T11:23:59.054Z,39.30
2018-07-27T11:26:26.600Z,40.00
2018-07-27T11:28:54.010Z,38.80
2018-07-27T11:31:21.515Z,39.40
2018-07-27T11:33:49.077Z,38.50
2018-07-27T11:36:16.493Z,42.30
2018-07-27T11:38:43.936Z,38.80
2018-07-27T11:41:11.361Z,39.50
2018-07-27T11:43:38.789Z,39.20
2018-07-27T11:46:06.257Z,37.40
2018-07-27T11:48:33.728Z,42.00
2018-07-27T11:51:01.142Z,39.30
2018-07-27T11:53:28.560Z,39.50
2018-07-27T11:55:56.152Z,43.30
2018-07-27T11:58:23.607Z,39.70
2018-07-27T12:00:51.039Z,39.10
2018-07-27T12:03:18.563Z,39.10
2018-07-27T12:05:45.977Z,41.60
2018-07-27T12:10:40.741Z,41.00
2018-07-27T12:13:08.281Z,41.40
2018-07-27T12:15:35.710Z,40.60
2018-07-27T12:18:03.134Z,39.40
2018-07-27T12:20:30.664Z,40.60
2018-07-27T12:22:58.059Z,39.90
2018-07-27T12:25:25.486Z,39.70
2018-07-27T12:27:53.025Z,42.10
2018-07-27T12:30:20.476Z,41.20
2018-07-27T12:32:47.966Z,41.00
2018-07-27T12:35:15.389Z,45.20
2018-07-27T12:37:42.833Z,40.80
2018-07-27T12:40:10.291Z,40.80
2018-07-27T12:42:37.814Z,40.50
2018-07-27T12:45:05.252Z,39.50
2018-07-27T12:47:32.601Z,40.00
2018-07-27T12:50:00.076Z,42.10
2018-07-27T12:52:27.499Z,43.80
2018-07-27T12:54:54.937Z,42.60
2018-07-27T12:57:22.373Z,41.80
2018-07-27T12:59:49.806Z,42.40
2018-07-27T13:02:17.337Z,42.20
2018-07-27T13:04:44.793Z,42.50
2018-07-27T13:07:12.409Z,40.30
2018-07-27T13:09:39.850Z,43.20
2018-07-27T13:12:07.288Z,42.90
2018-07-27T13:17:02.391Z,41.40
2018-07-27T13:19:29.863Z,42.10
2018-07-27T13:21:57.371Z,41.10
2018-07-27T13:26:52.212Z,40.90
2018-07-27T13:29:19.651Z,40.50
2018-07-27T13:31:49.507Z,41.30
2018-07-27T13:37:04.933Z,40.30
2018-07-27T13:39:33.125Z,40.50
2018-07-27T13:42:01.597Z,41.10
2018-07-27T13:44:29.881Z,40.40
2018-07-27T13:46:57.737Z,41.50
2018-07-27T13:49:25.504Z,40.80
2018-07-27T13:51:52.976Z,40.30
2018-07-27T13:54:20.441Z,40.80
2018-07-27T13:56:48.373Z,41.20
2018-07-27T13:59:16.660Z,42.60
2018-07-27T14:04:11.732Z,40.60
2018-07-27T14:06:39.182Z,38.30
2018-07-27T14:09:07.585Z,38.20
2018-07-27T14:11:35.033Z,39.00
2018-07-27T14:14:02.662Z,38.90
2018-07-27T14:16:30.132Z,39.00
2018-07-27T14:18:57.551Z,42.30
2018-07-27T14:21:24.989Z,41.80
2018-07-27T14:23:52.435Z,40.10
2018-07-27T14:26:20.129Z,39.80
2018-07-27T14:28:47.749Z,39.50
2018-07-27T14:31:15.189Z,40.30
2018-07-27T14:33:42.620Z,38.90
2018-07-27T14:36:10.053Z,38.10
2018-07-27T14:38:37.480Z,39.10
2018-07-27T14:41:04.916Z,40.30
2018-07-27T14:43:32.477Z,41.10
2018-07-27T14:45:59.916Z,40.30
2018-07-27T14:48:27.361Z,40.20
2018-07-27T14:50:54.824Z,39.40
2018-07-27T14:53:22.249Z,39.80
2018-07-27T14:55:49.692Z,39.60
2018-07-27T14:58:17.121Z,40.80
2018-07-27T15:00:44.607Z,40.70
2018-07-27T15:03:12.033Z,41.10
2018-07-27T15:05:39.493Z,40.70
2018-07-27T15:08:06.917Z,40.90
2018-07-27T15:10:34.432Z,40.00
2018-07-27T15:13:01.877Z,40.50
2018-07-27T15:15:29.317Z,41.30
2018-07-27T15:17:56.873Z,42.00
2018-07-27T15:20:24.497Z,40.90
2018-07-27T15:22:51.930Z,41.40
2018-07-27T15:25:20.549Z,40.90
2018-07-27T15:27:49.206Z,41.30
2018-07-27T15:30:16.871Z,40.90
2018-07-27T15:32:44.553Z,40.40
2018-07-27T15:35:12.117Z,41.40
2018-07-27T15:37:46.209Z,40.90
2018-07-27T15:40:13.807Z,40.80
2018-07-27T15:42:41.231Z,41.30
2018-07-27T15:45:08.644Z,41.40
2018-07-27T15:47:36.340Z,39.80
2018-07-27T15:50:04.412Z,40.30
2018-07-27T15:52:32.033Z,40.20
2018-07-27T15:54:59.485Z,40.90
2018-07-27T15:57:26.900Z,40.50
2018-07-27T15:59:54.497Z,39.80
2018-07-27T16:02:21.917Z,38.90
2018-07-27T16:07:16.655Z,39.50
2018-07-27T16:09:44.074Z,38.90
2018-07-27T16:12:11.685Z,39.50
2018-07-27T16:14:39.106Z,39.20
2018-07-27T16:17:06.546Z,38.70
2018-07-27T16:19:34.138Z,39.00
2018-07-27T16:22:01.570Z,39.20
2018-07-27T16:26:56.945Z,38.30
2018-07-27T16:29:24.509Z,39.70
2018-07-27T16:31:52.088Z,39.80
2018-07-27T16:34:19.525Z,39.70
2018-07-27T16:36:47.005Z,38.50
2018-07-27T16:39:14.481Z,39.80
2018-07-27T16:41:41.902Z,40.80
2018-07-27T16:44:09.359Z,40.30
2018-07-27T16:46:36.795Z,40.90
2018-07-27T16:49:04.585Z,42.90
2018-07-27T16:51:33.346Z,40.20
2018-07-27T16:54:00.876Z,39.80
2018-07-27T16:56:28.481Z,39.80
2018-07-27T16:58:55.921Z,40.30
2018-07-27T17:01:23.379Z,41.10
2018-07-27T17:03:50.817Z,40.80
2018-07-27T17:06:18.315Z,41.40
2018-07-27T17:08:45.700Z,40.50
2018-07-27T17:11:13.152Z,40.00
2018-07-27T17:13:41.171Z,39.60
2018-07-27T17:16:09.396Z,40.30
2018-07-27T17:18:37.072Z,39.70
2018-07-27T17:21:04.586Z,40.10
2018-07-27T17:23:32.149Z,40.00
2018-07-27T17:25:59.641Z,40.50
2018-07-27T17:28:27.174Z,40.70
2018-07-27T17:30:54.578Z,40.00
2018-07-27T17:33:22.084Z,40.30
2018-07-27T17:35:49.576Z,40.50
2018-07-27T17:38:17.036Z,40.80
2018-07-27T17:40:44.497Z,40.40
2018-07-27T17:43:11.929Z,40.80
2018-07-27T17:45:39.356Z,40.50
2018-07-27T17:48:06.972Z,41.10
2018-07-27T17:50:34.412Z,41.10
2018-07-27T17:53:01.846Z,41.20
2018-07-27T17:55:29.272Z,41.80
2018-07-27T17:57:56.729Z,42.80
2018-07-27T18:00:24.564Z,42.00
2018-07-27T18:02:52.185Z,42.00
2018-07-27T18:05:19.662Z,44.90
2018-07-27T18:07:47.240Z,46.80
2018-07-27T18:10:14.506Z,47.60
2018-07-27T18:12:41.937Z,48.10
2018-07-27T18:15:09.372Z,46.90
2018-07-27T18:17:36.961Z,46.80
2018-07-27T18:20:05.732Z,47.80
2018-07-27T18:22:33.181Z,49.00
2018-07-27T18:25:00.761Z,48.90
2018-07-27T18:27:28.301Z,48.20
2018-07-27T18:29:55.738Z,47.30
2018-07-27T18:32:23.252Z,48.20
2018-07-27T18:34:50.753Z,48.90
2018-07-27T18:37:18.194Z,48.20
2018-07-27T18:39:45.858Z,48.60
2018-07-27T18:42:13.420Z,49.10
2018-07-27T18:44:40.878Z,50.50
2018-07-27T18:47:08.306Z,50.60
2018-07-27T18:52:02.945Z,49.90
2018-07-27T18:54:30.508Z,50.30
2018-07-27T18:56:57.957Z,51.30
2018-07-27T18:59:25.444Z,50.90
2018-07-27T19:01:52.877Z,51.90
2018-07-27T19:04:20.313Z,51.60
2018-07-27T19:06:47.736Z,51.10
2018-07-27T19:09:15.173Z,52.00
2018-07-27T19:11:42.697Z,52.60
2018-07-27T19:14:10.537Z,53.60
2018-07-27T19:16:37.985Z,53.50
2018-07-27T19:19:05.461Z,53.60
2018-07-27T19:21:32.924Z,54.40
2018-07-27T19:24:00.381Z,54.60
2018-07-27T19:26:27.827Z,55.10
2018-07-27T19:28:55.445Z,55.20
2018-07-27T19:31:23.090Z,55.00
2018-07-27T19:33:50.700Z,55.80
2018-07-27T19:36:18.121Z,56.90
2018-07-27T19:38:45.574Z,57.30
2018-07-27T19:41:13.013Z,57.20
2018-07-27T19:43:40.437Z,56.60
2018-07-27T19:46:07.933Z,56.10
2018-07-27T19:48:35.348Z,55.30
2018-07-27T19:51:02.781Z,55.50
2018-07-27T19:53:30.209Z,55.30
2018-07-27T19:55:57.645Z,55.80
2018-07-27T19:58:25.081Z,55.80
2018-07-27T20:00:52.508Z,55.60
2018-07-27T20:03:19.937Z,55.70
2018-07-27T20:05:47.473Z,55.90
2018-07-27T20:08:14.933Z,56.30
2018-07-27T20:10:42.433Z,56.00
2018-07-27T20:13:09.843Z,56.10
2018-07-27T20:15:37.205Z,55.80
2018-07-27T20:18:04.649Z,55.90
2018-07-27T20:20:32.083Z,55.70
2018-07-27T20:22:59.497Z,56.20
2018-07-27T20:25:27.041Z,56.40
2018-07-27T20:27:54.516Z,56.20
2018-07-27T20:30:22.041Z,56.20
2018-07-27T20:32:49.489Z,56.60
2018-07-27T20:35:16.934Z,56.30
2018-07-27T20:40:11.618Z,56.00
2018-07-27T20:42:39.049Z,56.20
2018-07-27T20:45:06.588Z,57.00
2018-07-27T20:47:34.032Z,56.20
2018-07-27T20:50:01.470Z,56.10
2018-07-27T20:52:28.910Z,56.30
2018-07-27T20:54:56.423Z,56.60
2018-07-27T20:57:23.845Z,56.70
2018-07-27T20:59:51.333Z,56.70
2018-07-27T21:02:18.744Z,56.70
2018-07-27T21:04:46.250Z,56.90
2018-07-27T21:07:13.675Z,57.10
2018-07-27T21:09:41.160Z,57.30
2018-07-27T21:12:08.633Z,57.80
2018-07-27T21:14:36.173Z,57.80
2018-07-27T21:17:04.653Z,57.20
2018-07-27T21:19:32.233Z,57.40
2018-07-27T21:21:59.799Z,57.60
2018-07-27T21:24:28.380Z,57.90
2018-07-27T21:26:55.921Z,58.30
2018-07-27T21:29:23.480Z,58.50
2018-07-27T21:31:50.930Z,58.00
2018-07-27T21:34:18.709Z,60.60
2018-07-27T21:36:46.262Z,63.00
2018-07-27T21:39:13.997Z,63.00
2018-07-27T21:41:41.549Z,63.10
2018-07-27T21:46:36.228Z,62.70
2018-07-27T21:49:04.006Z,62.30
2018-07-27T21:51:31.448Z,62.30
2018-07-27T21:53:58.908Z,61.80
2018-07-27T21:56:26.325Z,62.50
2018-07-27T21:58:53.776Z,63.70
2018-07-27T22:01:21.216Z,64.20
2018-07-27T22:03:48.645Z,65.50
2018-07-27T22:06:16.157Z,65.60
2018-07-27T22:08:43.565Z,64.20
2018-07-27T22:11:11.006Z,65.70
2018-07-27T22:13:38.526Z,65.60
2018-07-27T22:16:05.972Z,66.10
2018-07-27T22:18:33.406Z,66.30
2018-07-27T22:21:00.850Z,68.60
2018-07-27T22:23:28.362Z,70.00
2018-07-27T22:25:55.805Z,69.10
2018-07-27T22:28:23.248Z,69.80
2018-07-27T22:30:50.878Z,70.60
2018-07-27T22:33:18.305Z,71.30
2018-07-27T22:35:45.744Z,72.10
2018-07-27T22:38:13.159Z,70.60
2018-07-27T22:40:40.652Z,71.80
2018-07-27T22:43:08.031Z,73.60
2018-07-27T22:45:35.642Z,71.90
2018-07-27T22:48:03.113Z,71.70
2018-07-27T22:50:30.553Z,72.20
2018-07-27T22:52:57.979Z,73.10
2018-07-27T22:55:25.422Z,75.90
2018-07-27T22:57:52.857Z,74.80
2018-07-27T23:00:20.439Z,75.90
2018-07-27T23:02:47.889Z,75.00
2018-07-27T23:05:15.343Z,75.30
2018-07-27T23:07:42.828Z,75.60
2018-07-27T23:10:10.824Z,76.40
2018-07-27T23:12:38.657Z,77.40
2018-07-27T23:15:07.000Z,76.90
2018-07-27T23:17:34.447Z,75.40
2018-07-27T23:20:01.896Z,75.60
2018-07-27T23:22:29.388Z,75.60
2018-07-27T23:24:56.898Z,75.50
2018-07-27T23:27:24.361Z,74.90
2018-07-27T23:29:51.804Z,75.30
2018-07-27T23:32:19.470Z,75.70
2018-07-27T23:34:46.892Z,75.80
2018-07-27T23:37:14.337Z,76.40
2018-07-27T23:39:41.779Z,75.70
2018-07-27T23:42:09.226Z,75.50
2018-07-27T23:44:36.701Z,77.50
2018-07-27T23:47:04.134Z,76.90
2018-07-27T23:49:31.574Z,76.40
2018-07-27T23:51:59.006Z,76.60
2018-07-27T23:54:26.445Z,76.80
2018-07-27T23:56:53.912Z,77.20
2018-07-27T23:59:21.345Z,78.20
